sensor_id;sensor_type;location;lat;lon;timestamp;pressure;altitude;pressure_sealevel;temperature;humidity
43147;BME280;28752;48.266;7.402;2024-03-08T00:02:15;99178.50;;;7.29;66.08
43147;BME280;28752;48.266;7.402;2024-03-08T00:04:44;99178.03;;;7.24;66.32
43147;BME280;28752;48.266;7.402;2024-03-08T00:07:40;99180.91;;;6.90;66.93
43147;BME280;28752;48.266;7.402;2024-03-08T00:10:18;99174.22;;;7.07;66.66
43147;BME280;28752;48.266;7.402;2024-03-08T00:12:52;99169.72;;;6.76;67.70
43147;BME280;28752;48.266;7.402;2024-03-08T00:15:31;99167.34;;;6.94;66.90
43147;BME280;28752;48.266;7.402;2024-03-08T00:18:12;99164.00;;;6.50;67.88
43147;BME280;28752;48.266;7.402;2024-03-08T00:20:49;99165.41;;;6.75;67.37
43147;BME280;28752;48.266;7.402;2024-03-08T00:23:29;99173.88;;;6.58;67.96
43147;BME280;28752;48.266;7.402;2024-03-08T00:26:20;99170.56;;;6.56;67.75
43147;BME280;28752;48.266;7.402;2024-03-08T00:29:09;99164.81;;;6.51;67.75
43147;BME280;28752;48.266;7.402;2024-03-08T00:31:53;99156.63;;;6.33;68.41
43147;BME280;28752;48.266;7.402;2024-03-08T00:34:22;99157.06;;;6.17;69.26
43147;BME280;28752;48.266;7.402;2024-03-08T00:36:50;99151.72;;;5.96;69.34
43147;BME280;28752;48.266;7.402;2024-03-08T00:39:29;99148.69;;;6.23;69.11
43147;BME280;28752;48.266;7.402;2024-03-08T00:42:05;99147.53;;;6.37;68.26
43147;BME280;28752;48.266;7.402;2024-03-08T00:44:56;99139.91;;;6.34;68.13
43147;BME280;28752;48.266;7.402;2024-03-08T00:51:20;99133.59;;;6.25;68.38
43147;BME280;28752;48.266;7.402;2024-03-08T00:53:46;99136.09;;;6.27;68.42
43147;BME280;28752;48.266;7.402;2024-03-08T00:56:11;99134.44;;;6.26;68.29
43147;BME280;28752;48.266;7.402;2024-03-08T00:58:37;99136.34;;;6.23;68.18
43147;BME280;28752;48.266;7.402;2024-03-08T01:01:03;99129.59;;;6.10;68.52
43147;BME280;28752;48.266;7.402;2024-03-08T01:03:28;99119.84;;;6.00;68.76
43147;BME280;28752;48.266;7.402;2024-03-08T01:05:57;99122.78;;;6.07;68.62
43147;BME280;28752;48.266;7.402;2024-03-08T01:08:22;99125.53;;;6.05;68.66
43147;BME280;28752;48.266;7.402;2024-03-08T01:10:48;99114.69;;;5.99;68.44
43147;BME280;28752;48.266;7.402;2024-03-08T01:13:16;99121.25;;;5.93;68.43
43147;BME280;28752;48.266;7.402;2024-03-08T01:15:41;99116.56;;;6.08;68.07
43147;BME280;28752;48.266;7.402;2024-03-08T01:18:06;99116.38;;;5.88;68.55
43147;BME280;28752;48.266;7.402;2024-03-08T01:20:41;99112.53;;;6.04;68.10
43147;BME280;28752;48.266;7.402;2024-03-08T01:23:39;99116.13;;;6.03;68.18
43147;BME280;28752;48.266;7.402;2024-03-08T01:26:21;99111.00;;;6.01;67.76
43147;BME280;28752;48.266;7.402;2024-03-08T01:28:52;99101.31;;;5.91;68.17
43147;BME280;28752;48.266;7.402;2024-03-08T01:31:33;99097.41;;;5.85;68.09
43147;BME280;28752;48.266;7.402;2024-03-08T01:34:28;99098.50;;;5.71;68.47
43147;BME280;28752;48.266;7.402;2024-03-08T01:37:05;99096.75;;;5.49;68.99
43147;BME280;28752;48.266;7.402;2024-03-08T01:39:54;99084.81;;;5.56;68.70
43147;BME280;28752;48.266;7.402;2024-03-08T01:42:48;99083.25;;;5.54;68.64
43147;BME280;28752;48.266;7.402;2024-03-08T01:45:25;99081.69;;;5.51;68.92
43147;BME280;28752;48.266;7.402;2024-03-08T01:48:43;99075.84;;;5.59;68.44
43147;BME280;28752;48.266;7.402;2024-03-08T01:51:26;99072.75;;;5.54;68.55
43147;BME280;28752;48.266;7.402;2024-03-08T01:54:02;99070.94;;;5.54;68.58
43147;BME280;28752;48.266;7.402;2024-03-08T01:56:48;99064.97;;;5.52;68.65
43147;BME280;28752;48.266;7.402;2024-03-08T01:59:30;99058.66;;;5.55;68.77
43147;BME280;28752;48.266;7.402;2024-03-08T02:02:05;99056.69;;;5.24;69.07
43147;BME280;28752;48.266;7.402;2024-03-08T02:04:48;99044.25;;;5.38;69.50
43147;BME280;28752;48.266;7.402;2024-03-08T02:07:18;99045.91;;;5.39;69.24
43147;BME280;28752;48.266;7.402;2024-03-08T02:09:43;99047.13;;;5.23;69.62
43147;BME280;28752;48.266;7.402;2024-03-08T02:12:08;99042.91;;;5.43;69.35
43147;BME280;28752;48.266;7.402;2024-03-08T02:14:34;99036.47;;;5.47;69.21
43147;BME280;28752;48.266;7.402;2024-03-08T02:17:02;99037.91;;;5.51;69.25
43147;BME280;28752;48.266;7.402;2024-03-08T02:19:28;99039.59;;;5.41;69.35
43147;BME280;28752;48.266;7.402;2024-03-08T02:21:53;99034.81;;;5.35;69.58
43147;BME280;28752;48.266;7.402;2024-03-08T02:24:19;99033.97;;;5.46;69.42
43147;BME280;28752;48.266;7.402;2024-03-08T02:26:44;99030.03;;;5.51;69.16
43147;BME280;28752;48.266;7.402;2024-03-08T02:29:09;99022.38;;;5.48;69.31
43147;BME280;28752;48.266;7.402;2024-03-08T02:31:35;99022.97;;;5.52;69.19
43147;BME280;28752;48.266;7.402;2024-03-08T02:34:00;99017.19;;;5.14;70.06
43147;BME280;28752;48.266;7.402;2024-03-08T02:36:30;99019.19;;;5.33;69.67
43147;BME280;28752;48.266;7.402;2024-03-08T02:39:28;99013.50;;;5.28;69.59
43147;BME280;28752;48.266;7.402;2024-03-08T02:42:00;99010.41;;;5.12;69.51
43147;BME280;28752;48.266;7.402;2024-03-08T02:44:58;99007.91;;;4.99;70.47
43147;BME280;28752;48.266;7.402;2024-03-08T02:47:34;99002.28;;;5.04;70.15
43147;BME280;28752;48.266;7.402;2024-03-08T02:50:18;99005.88;;;5.03;70.11
43147;BME280;28752;48.266;7.402;2024-03-08T02:52:56;99006.97;;;5.00;70.09
43147;BME280;28752;48.266;7.402;2024-03-08T02:55:54;99000.75;;;4.90;70.22
43147;BME280;28752;48.266;7.402;2024-03-08T02:58:37;98999.78;;;5.02;69.91
43147;BME280;28752;48.266;7.402;2024-03-08T03:01:31;98994.81;;;4.88;70.13
43147;BME280;28752;48.266;7.402;2024-03-08T03:04:06;98996.34;;;4.90;70.42
43147;BME280;28752;48.266;7.402;2024-03-08T03:06:33;98987.75;;;4.88;70.46
43147;BME280;28752;48.266;7.402;2024-03-08T03:08:59;98984.44;;;4.86;70.23
43147;BME280;28752;48.266;7.402;2024-03-08T03:11:24;98988.81;;;4.86;70.40
43147;BME280;28752;48.266;7.402;2024-03-08T03:13:49;98983.09;;;4.92;70.21
43147;BME280;28752;48.266;7.402;2024-03-08T03:16:18;98989.78;;;4.96;69.91
43147;BME280;28752;48.266;7.402;2024-03-08T03:18:45;98976.06;;;4.58;70.27
43147;BME280;28752;48.266;7.402;2024-03-08T03:21:10;98985.75;;;4.47;71.15
43147;BME280;28752;48.266;7.402;2024-03-08T03:23:37;98980.97;;;4.52;71.29
43147;BME280;28752;48.266;7.402;2024-03-08T03:26:05;98973.59;;;4.68;70.75
43147;BME280;28752;48.266;7.402;2024-03-08T03:28:32;98972.53;;;4.71;70.41
43147;BME280;28752;48.266;7.402;2024-03-08T03:30:58;98965.81;;;4.55;70.64
43147;BME280;28752;48.266;7.402;2024-03-08T03:33:24;98973.31;;;4.60;70.52
43147;BME280;28752;48.266;7.402;2024-03-08T03:35:49;98968.69;;;4.63;70.26
43147;BME280;28752;48.266;7.402;2024-03-08T03:38:17;98965.56;;;4.81;69.36
43147;BME280;28752;48.266;7.402;2024-03-08T03:40:42;98969.91;;;4.71;69.81
43147;BME280;28752;48.266;7.402;2024-03-08T03:43:10;98962.84;;;4.83;69.23
43147;BME280;28752;48.266;7.402;2024-03-08T03:45:36;98968.56;;;4.88;69.17
43147;BME280;28752;48.266;7.402;2024-03-08T03:48:04;98959.72;;;4.89;69.15
43147;BME280;28752;48.266;7.402;2024-03-08T03:50:30;98957.25;;;4.76;69.37
43147;BME280;28752;48.266;7.402;2024-03-08T03:52:57;98959.63;;;4.79;69.47
43147;BME280;28752;48.266;7.402;2024-03-08T03:55:45;98954.75;;;4.74;69.38
43147;BME280;28752;48.266;7.402;2024-03-08T03:58:21;98957.47;;;4.84;69.29
43147;BME280;28752;48.266;7.402;2024-03-08T04:00:59;98953.91;;;4.74;69.45
43147;BME280;28752;48.266;7.402;2024-03-08T04:03:37;98959.03;;;4.75;69.23
43147;BME280;28752;48.266;7.402;2024-03-08T04:06:19;98956.28;;;4.43;70.54
43147;BME280;28752;48.266;7.402;2024-03-08T04:08:56;98952.13;;;4.40;70.53
43147;BME280;28752;48.266;7.402;2024-03-08T04:11:38;98951.03;;;4.43;70.72
43147;BME280;28752;48.266;7.402;2024-03-08T04:14:26;98946.78;;;4.42;70.79
43147;BME280;28752;48.266;7.402;2024-03-08T04:20:25;98956.75;;;4.25;71.29
43147;BME280;28752;48.266;7.402;2024-03-08T04:23:11;98953.56;;;4.33;70.91
43147;BME280;28752;48.266;7.402;2024-03-08T04:26:01;98956.41;;;4.30;71.00
43147;BME280;28752;48.266;7.402;2024-03-08T04:28:35;98956.53;;;4.29;70.61
43147;BME280;28752;48.266;7.402;2024-03-08T04:31:17;98953.72;;;3.96;71.76
43147;BME280;28752;48.266;7.402;2024-03-08T04:34:22;98946.59;;;4.09;71.30
43147;BME280;28752;48.266;7.402;2024-03-08T04:37:01;98950.16;;;3.97;71.63
43147;BME280;28752;48.266;7.402;2024-03-08T04:39:40;98950.16;;;3.97;71.63
43147;BME280;28752;48.266;7.402;2024-03-08T04:42:31;98949.53;;;3.58;71.94
43147;BME280;28752;48.266;7.402;2024-03-08T04:45:13;98938.91;;;3.72;72.38
43147;BME280;28752;48.266;7.402;2024-03-08T04:48:02;98940.13;;;3.80;72.36
43147;BME280;28752;48.266;7.402;2024-03-08T04:50:51;98939.72;;;3.73;72.51
43147;BME280;28752;48.266;7.402;2024-03-08T04:53:30;98938.00;;;3.96;71.77
43147;BME280;28752;48.266;7.402;2024-03-08T04:56:05;98937.75;;;3.88;71.87
43147;BME280;28752;48.266;7.402;2024-03-08T04:58:41;98935.00;;;3.78;71.38
43147;BME280;28752;48.266;7.402;2024-03-08T05:01:16;98931.91;;;3.84;71.59
43147;BME280;28752;48.266;7.402;2024-03-08T05:03:57;98933.56;;;3.85;71.71
43147;BME280;28752;48.266;7.402;2024-03-08T05:07:00;98931.47;;;4.02;71.11
43147;BME280;28752;48.266;7.402;2024-03-08T05:09:37;98929.47;;;4.05;70.93
43147;BME280;28752;48.266;7.402;2024-03-08T05:12:11;98932.09;;;4.05;70.77
43147;BME280;28752;48.266;7.402;2024-03-08T05:14:46;98925.88;;;3.95;71.33
43147;BME280;28752;48.266;7.402;2024-03-08T05:17:36;98935.13;;;3.77;72.08
43147;BME280;28752;48.266;7.402;2024-03-08T05:20:29;98926.69;;;3.96;72.09
43147;BME280;28752;48.266;7.402;2024-03-08T05:23:09;98930.47;;;3.80;72.66
43147;BME280;28752;48.266;7.402;2024-03-08T05:26:03;98929.91;;;3.99;72.36
43147;BME280;28752;48.266;7.402;2024-03-08T05:28:40;98933.03;;;4.04;71.86
43147;BME280;28752;48.266;7.402;2024-03-08T05:31:22;98935.03;;;4.01;71.82
43147;BME280;28752;48.266;7.402;2024-03-08T05:34:11;98934.06;;;3.90;71.95
43147;BME280;28752;48.266;7.402;2024-03-08T05:36:46;98934.59;;;3.71;72.68
43147;BME280;28752;48.266;7.402;2024-03-08T05:39:41;98936.81;;;3.89;72.42
43147;BME280;28752;48.266;7.402;2024-03-08T05:42:31;98935.34;;;3.73;72.36
43147;BME280;28752;48.266;7.402;2024-03-08T05:45:06;98941.88;;;3.79;72.51
43147;BME280;28752;48.266;7.402;2024-03-08T05:47:43;98944.50;;;3.79;72.52
43147;BME280;28752;48.266;7.402;2024-03-08T05:50:33;98937.22;;;3.36;73.03
43147;BME280;28752;48.266;7.402;2024-03-08T05:53:22;98943.81;;;3.53;72.67
43147;BME280;28752;48.266;7.402;2024-03-08T05:56:06;98934.81;;;3.57;72.97
43147;BME280;28752;48.266;7.402;2024-03-08T05:58:51;98925.06;;;3.11;73.59
43147;BME280;28752;48.266;7.402;2024-03-08T06:01:29;98925.34;;;3.43;73.11
43147;BME280;28752;48.266;7.402;2024-03-08T06:04:05;98923.78;;;3.41;73.08
43147;BME280;28752;48.266;7.402;2024-03-08T06:06:45;98930.47;;;3.45;73.18
43147;BME280;28752;48.266;7.402;2024-03-08T06:09:19;98933.38;;;3.64;72.61
43147;BME280;28752;48.266;7.402;2024-03-08T06:12:15;98932.56;;;3.15;73.39
43147;BME280;28752;48.266;7.402;2024-03-08T06:15:14;98938.00;;;3.49;72.34
43147;BME280;28752;48.266;7.402;2024-03-08T06:17:51;98928.03;;;3.66;71.94
43147;BME280;28752;48.266;7.402;2024-03-08T06:20:31;98937.28;;;3.83;71.75
43147;BME280;28752;48.266;7.402;2024-03-08T06:23:21;98932.16;;;3.81;71.52
43147;BME280;28752;48.266;7.402;2024-03-08T06:26:13;98927.66;;;4.06;70.92
43147;BME280;28752;48.266;7.402;2024-03-08T06:31:51;98918.50;;;4.12;71.34
43147;BME280;28752;48.266;7.402;2024-03-08T06:34:44;98916.97;;;4.43;71.05
43147;BME280;28752;48.266;7.402;2024-03-08T06:38:06;98921.50;;;4.63;70.20
43147;BME280;28752;48.266;7.402;2024-03-08T06:40:36;98917.63;;;5.02;69.43
43147;BME280;28752;48.266;7.402;2024-03-08T06:47:12;98925.38;;;5.36;68.39
43147;BME280;28752;48.266;7.402;2024-03-08T06:50:09;98924.66;;;5.66;67.26
43147;BME280;28752;48.266;7.402;2024-03-08T07:02:52;98924.50;;;6.21;65.88
43147;BME280;28752;48.266;7.402;2024-03-08T07:09:06;98922.75;;;6.62;64.89
43147;BME280;28752;48.266;7.402;2024-03-08T07:11:38;98921.38;;;6.68;65.09
43147;BME280;28752;48.266;7.402;2024-03-08T07:14:15;98915.34;;;6.87;64.59
43147;BME280;28752;48.266;7.402;2024-03-08T07:20:21;98918.97;;;6.55;65.06
43147;BME280;28752;48.266;7.402;2024-03-08T07:22:52;98907.88;;;6.92;64.43
43147;BME280;28752;48.266;7.402;2024-03-08T07:25:28;98902.09;;;7.08;64.10
43147;BME280;28752;48.266;7.402;2024-03-08T07:31:34;98898.50;;;7.28;63.85
43147;BME280;28752;48.266;7.402;2024-03-08T07:34:28;98906.53;;;7.27;64.14
43147;BME280;28752;48.266;7.402;2024-03-08T07:40:35;98904.19;;;7.53;63.77
43147;BME280;28752;48.266;7.402;2024-03-08T07:46:42;98907.78;;;7.62;63.20
43147;BME280;28752;48.266;7.402;2024-03-08T07:49:41;98897.13;;;7.44;63.65
43147;BME280;28752;48.266;7.402;2024-03-08T07:55:35;98901.41;;;7.64;63.57
43147;BME280;28752;48.266;7.402;2024-03-08T07:58:09;98897.25;;;7.33;64.44
43147;BME280;28752;48.266;7.402;2024-03-08T08:04:16;98897.94;;;7.64;64.15
43147;BME280;28752;48.266;7.402;2024-03-08T08:10:46;98894.44;;;7.93;63.46
43147;BME280;28752;48.266;7.402;2024-03-08T08:13:23;98893.88;;;7.99;63.29
43147;BME280;28752;48.266;7.402;2024-03-08T08:16:35;98887.25;;;7.65;64.18
43147;BME280;28752;48.266;7.402;2024-03-08T08:19:35;98891.91;;;8.11;63.83
43147;BME280;28752;48.266;7.402;2024-03-08T08:22:04;98882.28;;;8.19;63.40
43147;BME280;28752;48.266;7.402;2024-03-08T08:24:30;98880.56;;;8.38;63.28
43147;BME280;28752;48.266;7.402;2024-03-08T08:26:55;98883.88;;;8.40;62.92
43147;BME280;28752;48.266;7.402;2024-03-08T08:29:20;98884.84;;;8.49;63.03
43147;BME280;28752;48.266;7.402;2024-03-08T08:31:47;98867.59;;;8.54;62.91
43147;BME280;28752;48.266;7.402;2024-03-08T08:34:12;98868.13;;;8.58;62.86
43147;BME280;28752;48.266;7.402;2024-03-08T08:36:38;98869.41;;;8.54;63.36
43147;BME280;28752;48.266;7.402;2024-03-08T08:39:04;98875.25;;;8.76;63.07
43147;BME280;28752;48.266;7.402;2024-03-08T08:41:30;98869.41;;;8.54;62.77
43147;BME280;28752;48.266;7.402;2024-03-08T08:43:57;98868.84;;;8.78;62.80
43147;BME280;28752;48.266;7.402;2024-03-08T08:46:22;98857.63;;;8.94;63.07
43147;BME280;28752;48.266;7.402;2024-03-08T08:48:47;98856.22;;;8.54;63.58
43147;BME280;28752;48.266;7.402;2024-03-08T08:51:13;98852.19;;;8.96;63.17
43147;BME280;28752;48.266;7.402;2024-03-08T08:53:41;98857.13;;;9.09;63.07
43147;BME280;28752;48.266;7.402;2024-03-08T09:00:18;98849.22;;;9.27;62.79
43147;BME280;28752;48.266;7.402;2024-03-08T09:03:27;98853.56;;;9.00;62.24
43147;BME280;28752;48.266;7.402;2024-03-08T09:06:55;98841.66;;;9.14;62.64
43147;BME280;28752;48.266;7.402;2024-03-08T09:09:14;98840.97;;;8.94;63.21
43147;BME280;28752;48.266;7.402;2024-03-08T09:11:51;98841.88;;;9.02;62.14
43147;BME280;28752;48.266;7.402;2024-03-08T09:20:48;98844.31;;;8.68;64.22
43147;BME280;28752;48.266;7.402;2024-03-08T09:23:21;98835.78;;;8.56;65.00
43147;BME280;28752;48.266;7.402;2024-03-08T09:25:58;98832.94;;;8.67;62.90
43147;BME280;28752;48.266;7.402;2024-03-08T09:28:39;98834.88;;;8.47;64.07
43147;BME280;28752;48.266;7.402;2024-03-08T09:35:12;98822.94;;;8.89;62.75
43147;BME280;28752;48.266;7.402;2024-03-08T09:37:42;98825.44;;;9.09;61.44
43147;BME280;28752;48.266;7.402;2024-03-08T09:40:08;98820.97;;;8.73;61.74
43147;BME280;28752;48.266;7.402;2024-03-08T09:42:43;98814.09;;;9.16;61.06
43147;BME280;28752;48.266;7.402;2024-03-08T09:45:10;98819.94;;;9.02;62.35
43147;BME280;28752;48.266;7.402;2024-03-08T09:47:39;98818.72;;;8.96;63.10
43147;BME280;28752;48.266;7.402;2024-03-08T09:50:07;98809.25;;;9.48;61.23
43147;BME280;28752;48.266;7.402;2024-03-08T09:52:35;98801.78;;;9.43;61.79
43147;BME280;28752;48.266;7.402;2024-03-08T09:55:04;98801.34;;;9.82;60.58
43147;BME280;28752;48.266;7.402;2024-03-08T09:57:31;98791.25;;;9.25;61.43
43147;BME280;28752;48.266;7.402;2024-03-08T09:59:57;98799.50;;;9.48;61.15
43147;BME280;28752;48.266;7.402;2024-03-08T10:02:22;98795.66;;;9.42;62.07
43147;BME280;28752;48.266;7.402;2024-03-08T10:04:48;98788.81;;;9.14;61.29
43147;BME280;28752;48.266;7.402;2024-03-08T10:07:13;98791.03;;;9.63;61.03
43147;BME280;28752;48.266;7.402;2024-03-08T10:09:39;98786.97;;;9.76;62.10
43147;BME280;28752;48.266;7.402;2024-03-08T10:12:05;98780.75;;;9.15;61.72
43147;BME280;28752;48.266;7.402;2024-03-08T10:14:30;98789.38;;;8.99;61.71
43147;BME280;28752;48.266;7.402;2024-03-08T10:16:57;98782.84;;;9.30;60.31
43147;BME280;28752;48.266;7.402;2024-03-08T10:19:25;98774.84;;;9.66;60.31
43147;BME280;28752;48.266;7.402;2024-03-08T10:21:51;98772.91;;;9.05;60.46
43147;BME280;28752;48.266;7.402;2024-03-08T10:24:41;98776.81;;;9.37;59.78
43147;BME280;28752;48.266;7.402;2024-03-08T10:30:22;98769.03;;;9.62;59.65
43147;BME280;28752;48.266;7.402;2024-03-08T10:33:00;98764.50;;;9.28;60.37
43147;BME280;28752;48.266;7.402;2024-03-08T10:35:52;98757.66;;;9.96;59.48
43147;BME280;28752;48.266;7.402;2024-03-08T10:38:24;98763.53;;;9.82;57.99
43147;BME280;28752;48.266;7.402;2024-03-08T10:41:01;98759.38;;;9.79;58.34
43147;BME280;28752;48.266;7.402;2024-03-08T10:50:28;98753.94;;;10.15;56.46
43147;BME280;28752;48.266;7.402;2024-03-08T11:04:43;98740.06;;;10.21;59.13
43147;BME280;28752;48.266;7.402;2024-03-08T11:07:16;98731.91;;;10.06;58.42
43147;BME280;28752;48.266;7.402;2024-03-08T11:10:19;98733.56;;;10.07;58.26
43147;BME280;28752;48.266;7.402;2024-03-08T11:12:45;98724.50;;;10.18;57.96
43147;BME280;28752;48.266;7.402;2024-03-08T11:15:13;98731.25;;;10.04;57.53
43147;BME280;28752;48.266;7.402;2024-03-08T11:20:18;98713.19;;;10.00;55.53
43147;BME280;28752;48.266;7.402;2024-03-08T11:22:50;98716.94;;;10.31;56.29
43147;BME280;28752;48.266;7.402;2024-03-08T11:28:50;98707.13;;;10.16;56.17
43147;BME280;28752;48.266;7.402;2024-03-08T11:31:36;98703.91;;;10.38;56.67
43147;BME280;28752;48.266;7.402;2024-03-08T11:38:20;98692.88;;;10.59;56.47
43147;BME280;28752;48.266;7.402;2024-03-08T11:54:58;98663.91;;;10.91;58.11
43147;BME280;28752;48.266;7.402;2024-03-08T11:57:24;98654.59;;;11.19;56.68
43147;BME280;28752;48.266;7.402;2024-03-08T11:59:53;98655.31;;;10.97;57.54
43147;BME280;28752;48.266;7.402;2024-03-08T12:02:19;98652.00;;;10.70;59.18
43147;BME280;28752;48.266;7.402;2024-03-08T12:04:45;98644.91;;;10.87;57.93
43147;BME280;28752;48.266;7.402;2024-03-08T12:07:11;98641.19;;;11.21;58.40
43147;BME280;28752;48.266;7.402;2024-03-08T12:20:49;98623.00;;;11.01;58.53
43147;BME280;28752;48.266;7.402;2024-03-08T12:23:20;98612.34;;;11.26;56.71
43147;BME280;28752;48.266;7.402;2024-03-08T12:39:30;98593.91;;;11.49;56.50
43147;BME280;28752;48.266;7.402;2024-03-08T12:41:56;98590.63;;;11.70;55.31
43147;BME280;28752;48.266;7.402;2024-03-08T12:44:25;98584.22;;;11.56;56.32
43147;BME280;28752;48.266;7.402;2024-03-08T12:46:51;98568.78;;;11.29;57.48
43147;BME280;28752;48.266;7.402;2024-03-08T12:49:18;98566.94;;;11.69;56.99
43147;BME280;28752;48.266;7.402;2024-03-08T12:51:47;98565.94;;;11.70;55.63
43147;BME280;28752;48.266;7.402;2024-03-08T12:54:12;98554.41;;;11.94;54.54
43147;BME280;28752;48.266;7.402;2024-03-08T12:56:38;98552.56;;;11.63;54.74
43147;BME280;28752;48.266;7.402;2024-03-08T12:59:05;98550.72;;;11.64;54.67
43147;BME280;28752;48.266;7.402;2024-03-08T13:01:31;98542.13;;;11.62;55.04
43147;BME280;28752;48.266;7.402;2024-03-08T13:03:59;98535.13;;;12.00;54.79
43147;BME280;28752;48.266;7.402;2024-03-08T13:06:29;98540.59;;;11.67;55.63
43147;BME280;28752;48.266;7.402;2024-03-08T13:08:56;98529.84;;;11.37;56.17
43147;BME280;28752;48.266;7.402;2024-03-08T13:11:23;98528.44;;;11.81;55.71
43147;BME280;28752;48.266;7.402;2024-03-08T13:13:49;98519.50;;;11.51;55.16
43147;BME280;28752;48.266;7.402;2024-03-08T13:16:15;98528.81;;;11.70;54.86
43147;BME280;28752;48.266;7.402;2024-03-08T13:18:41;98527.16;;;12.00;54.14
43147;BME280;28752;48.266;7.402;2024-03-08T13:21:12;98523.59;;;11.85;55.33
43147;BME280;28752;48.266;7.402;2024-03-08T13:23:41;98510.38;;;11.77;54.87
43147;BME280;28752;48.266;7.402;2024-03-08T13:26:12;98511.34;;;12.07;54.71
43147;BME280;28752;48.266;7.402;2024-03-08T13:28:43;98511.41;;;12.22;55.06
43147;BME280;28752;48.266;7.402;2024-03-08T13:31:08;98502.09;;;11.80;54.54
43147;BME280;28752;48.266;7.402;2024-03-08T13:33:37;98501.81;;;11.98;53.76
43147;BME280;28752;48.266;7.402;2024-03-08T13:36:05;98483.59;;;12.18;53.73
43147;BME280;28752;48.266;7.402;2024-03-08T13:38:32;98488.72;;;12.19;53.73
43147;BME280;28752;48.266;7.402;2024-03-08T13:40:58;98492.59;;;11.85;54.08
43147;BME280;28752;48.266;7.402;2024-03-08T13:43:24;98482.53;;;12.04;53.88
43147;BME280;28752;48.266;7.402;2024-03-08T13:45:49;98479.31;;;11.94;54.21
43147;BME280;28752;48.266;7.402;2024-03-08T13:48:15;98474.03;;;12.08;54.70
43147;BME280;28752;48.266;7.402;2024-03-08T13:50:41;98476.34;;;12.26;53.16
43147;BME280;28752;48.266;7.402;2024-03-08T13:53:06;98458.63;;;12.04;54.00
43147;BME280;28752;48.266;7.402;2024-03-08T13:55:32;98453.13;;;12.29;53.69
43147;BME280;28752;48.266;7.402;2024-03-08T13:57:58;98449.22;;;12.39;53.37
43147;BME280;28752;48.266;7.402;2024-03-08T14:00:24;98448.63;;;12.29;52.94
43147;BME280;28752;48.266;7.402;2024-03-08T14:02:54;98457.78;;;12.12;53.61
43147;BME280;28752;48.266;7.402;2024-03-08T14:05:19;98443.28;;;12.14;53.13
43147;BME280;28752;48.266;7.402;2024-03-08T14:07:45;98436.00;;;12.16;52.87
43147;BME280;28752;48.266;7.402;2024-03-08T14:14:05;98448.38;;;12.01;52.57
43147;BME280;28752;48.266;7.402;2024-03-08T14:16:58;98444.69;;;12.10;53.09
43147;BME280;28752;48.266;7.402;2024-03-08T14:26:24;98403.41;;;12.07;52.00
43147;BME280;28752;48.266;7.402;2024-03-08T14:28:51;98408.41;;;12.40;52.10
43147;BME280;28752;48.266;7.402;2024-03-08T14:31:20;98407.88;;;12.07;52.50
43147;BME280;28752;48.266;7.402;2024-03-08T14:33:49;98408.75;;;12.22;52.52
43147;BME280;28752;48.266;7.402;2024-03-08T14:36:15;98405.16;;;12.15;53.01
43147;BME280;28752;48.266;7.402;2024-03-08T14:38:42;98400.75;;;12.37;51.81
43147;BME280;28752;48.266;7.402;2024-03-08T14:41:08;98396.00;;;12.48;51.28
43147;BME280;28752;48.266;7.402;2024-03-08T14:43:33;98395.13;;;12.40;51.74
43147;BME280;28752;48.266;7.402;2024-03-08T14:45:59;98393.56;;;11.93;52.16
43147;BME280;28752;48.266;7.402;2024-03-08T14:48:24;98388.50;;;12.21;52.18
43147;BME280;28752;48.266;7.402;2024-03-08T14:50:50;98392.78;;;12.07;52.19
43147;BME280;28752;48.266;7.402;2024-03-08T14:53:16;98391.72;;;12.32;51.48
43147;BME280;28752;48.266;7.402;2024-03-08T14:55:54;98391.88;;;12.15;51.95
43147;BME280;28752;48.266;7.402;2024-03-08T15:09:33;98367.53;;;11.73;52.76
43147;BME280;28752;48.266;7.402;2024-03-08T15:12:08;98360.63;;;11.87;52.39
43147;BME280;28752;48.266;7.402;2024-03-08T15:21:29;98352.63;;;11.96;52.99
43147;BME280;28752;48.266;7.402;2024-03-08T15:24:40;98352.00;;;11.85;53.52
43147;BME280;28752;48.266;7.402;2024-03-08T15:27:11;98354.28;;;12.12;53.26
43147;BME280;28752;48.266;7.402;2024-03-08T15:47:17;98315.38;;;12.04;54.96
43147;BME280;28752;48.266;7.402;2024-03-08T15:50:05;98325.63;;;12.52;53.97
43147;BME280;28752;48.266;7.402;2024-03-08T15:53:05;98323.09;;;12.29;53.52
43147;BME280;28752;48.266;7.402;2024-03-08T15:57:15;98311.72;;;12.05;53.92
43147;BME280;28752;48.266;7.402;2024-03-08T15:59:47;98313.28;;;11.99;54.16
43147;BME280;28752;48.266;7.402;2024-03-08T16:06:17;98323.34;;;12.19;54.02
43147;BME280;28752;48.266;7.402;2024-03-08T16:12:55;98303.31;;;12.01;54.91
43147;BME280;28752;48.266;7.402;2024-03-08T16:19:18;98296.53;;;12.14;55.19
43147;BME280;28752;48.266;7.402;2024-03-08T16:40:04;98286.84;;;11.53;55.27
43147;BME280;28752;48.266;7.402;2024-03-08T16:49:46;98281.47;;;11.61;56.33
43147;BME280;28752;48.266;7.402;2024-03-08T17:06:51;98294.56;;;10.78;58.23
43147;BME280;28752;48.266;7.402;2024-03-08T17:20:51;98271.44;;;10.95;58.83
43147;BME280;28752;48.266;7.402;2024-03-08T17:23:16;98270.91;;;10.77;58.62
43147;BME280;28752;48.266;7.402;2024-03-08T17:26:10;98268.53;;;10.59;59.38
43147;BME280;28752;48.266;7.402;2024-03-08T17:28:45;98262.06;;;10.61;59.37
43147;BME280;28752;48.266;7.402;2024-03-08T17:55:28;98274.25;;;10.94;55.31
43147;BME280;28752;48.266;7.402;2024-03-08T18:19:19;98283.66;;;11.19;55.56
43147;BME280;28752;48.266;7.402;2024-03-08T18:25:38;98290.16;;;11.55;55.39
43147;BME280;28752;48.266;7.402;2024-03-08T18:35:24;98291.00;;;11.55;55.05
43147;BME280;28752;48.266;7.402;2024-03-08T18:55:48;98283.94;;;11.63;55.33
43147;BME280;28752;48.266;7.402;2024-03-08T19:25:57;98278.81;;;11.61;56.06
43147;BME280;28752;48.266;7.402;2024-03-08T19:43:24;98280.56;;;11.54;57.46
43147;BME280;28752;48.266;7.402;2024-03-08T20:28:27;98291.53;;;11.66;54.90
43147;BME280;28752;48.266;7.402;2024-03-08T21:26:37;98276.78;;;11.10;60.33
43147;BME280;28752;48.266;7.402;2024-03-08T22:05:33;98289.78;;;10.74;62.97
43147;BME280;28752;48.266;7.402;2024-03-08T22:11:52;98295.59;;;10.69;62.58
43147;BME280;28752;48.266;7.402;2024-03-08T22:22:21;98294.56;;;10.78;63.54